createdAt,value
2022-11-01T00:02:48.841Z,7.80
2022-11-01T00:07:53.785Z,7.80
2022-11-01T00:12:56.478Z,7.50
2022-11-01T00:17:59.138Z,7.50
2022-11-01T00:23:02.103Z,7.50
2022-11-01T00:28:05.325Z,7.30
2022-11-01T00:33:08.470Z,7.20
2022-11-01T00:38:11.255Z,7.20
2022-11-01T00:43:14.385Z,7.10
2022-11-01T00:48:17.168Z,7.20
2022-11-01T00:53:20.140Z,7.20
2022-11-01T00:58:22.812Z,7.20
2022-11-01T01:03:25.641Z,7.00
2022-11-01T01:08:28.675Z,7.10
2022-11-01T01:13:31.697Z,7.10
2022-11-01T01:18:34.671Z,7.00
2022-11-01T01:23:37.409Z,7.00
2022-11-01T01:28:43.663Z,7.00
2022-11-01T01:33:47.625Z,7.00
2022-11-01T01:38:53.513Z,7.10
2022-11-01T01:43:56.164Z,7.20
2022-11-01T01:49:00.623Z,7.20
2022-11-01T01:54:03.268Z,7.20
2022-11-01T01:59:07.976Z,7.20
2022-11-01T02:04:24.021Z,7.40
2022-11-01T02:09:29.391Z,7.30
2022-11-01T02:14:33.726Z,7.50
2022-11-01T02:19:41.870Z,7.60
2022-11-01T02:25:11.173Z,7.60
2022-11-01T02:30:20.130Z,7.70
2022-11-01T02:35:37.770Z,7.60
2022-11-01T02:41:01.446Z,7.60
2022-11-01T02:46:26.358Z,7.60
2022-11-01T02:51:30.390Z,7.50
2022-11-01T02:56:33.270Z,7.40
2022-11-01T03:01:37.717Z,7.30
2022-11-01T03:06:46.969Z,7.30
2022-11-01T03:11:58.167Z,7.20
2022-11-01T03:17:08.007Z,7.20
2022-11-01T03:22:39.887Z,7.20
2022-11-01T03:27:44.978Z,7.20
2022-11-01T03:32:50.030Z,7.20
2022-11-01T03:37:56.868Z,7.40
2022-11-01T03:43:04.554Z,7.40
2022-11-01T03:48:07.958Z,7.40
2022-11-01T03:53:10.728Z,7.50
2022-11-01T03:58:13.349Z,7.60
2022-11-01T04:03:16.009Z,7.70
2022-11-01T04:08:18.705Z,7.70
2022-11-01T04:13:21.312Z,7.80
2022-11-01T04:18:43.610Z,7.80
2022-11-01T04:23:47.566Z,7.90
2022-11-01T04:29:00.030Z,7.90
2022-11-01T04:34:04.579Z,8.00
2022-11-01T04:39:07.427Z,8.00
2022-11-01T04:44:10.160Z,8.00
2022-11-01T04:49:12.839Z,8.10
2022-11-01T04:54:15.681Z,8.00
2022-11-01T04:59:18.307Z,7.90
2022-11-01T05:04:20.924Z,7.90
2022-11-01T05:09:23.564Z,7.80
2022-11-01T05:14:26.238Z,7.70
2022-11-01T05:19:28.867Z,7.70
2022-11-01T05:24:31.513Z,7.70
2022-11-01T05:29:34.182Z,7.70
2022-11-01T05:34:36.837Z,7.70
2022-11-01T05:39:39.619Z,7.60
2022-11-01T05:44:42.246Z,7.60
2022-11-01T05:49:45.120Z,7.70
2022-11-01T05:54:47.991Z,7.80
2022-11-01T05:59:50.770Z,7.80
2022-11-01T06:04:53.528Z,7.90
2022-11-01T06:09:56.508Z,7.90
2022-11-01T06:14:59.468Z,8.00
2022-11-01T06:20:02.414Z,8.10
2022-11-01T06:25:06.560Z,8.20
2022-11-01T06:30:10.309Z,8.30
2022-11-01T06:35:13.307Z,8.30
2022-11-01T06:40:16.007Z,8.50
2022-11-01T06:45:18.733Z,8.60
2022-11-01T06:50:22.338Z,8.70
2022-11-01T06:55:29.580Z,8.70
2022-11-01T07:00:33.711Z,8.80
2022-11-01T07:05:37.950Z,8.90
2022-11-01T07:10:43.329Z,9.00
2022-11-01T07:15:46.356Z,9.20
2022-11-01T07:20:49.663Z,9.30
2022-11-01T07:25:53.359Z,9.40
2022-11-01T07:30:56.958Z,9.50
2022-11-01T07:36:01.628Z,9.60
2022-11-01T07:41:05.537Z,9.70
2022-11-01T07:46:08.550Z,9.80
2022-11-01T07:51:11.493Z,9.90
2022-11-01T07:56:14.304Z,10.00
2022-11-01T08:01:17.153Z,10.00
2022-11-01T08:06:19.888Z,10.00
2022-11-01T08:11:22.818Z,10.10
2022-11-01T08:16:25.599Z,10.20
2022-11-01T08:21:28.858Z,10.20
2022-11-01T08:26:31.764Z,10.20
2022-11-01T08:31:34.533Z,10.30
2022-11-01T08:36:37.521Z,10.40
2022-11-01T08:41:40.355Z,10.50
2022-11-01T08:46:43.760Z,10.50
2022-11-01T08:51:46.649Z,10.60
2022-11-01T08:56:49.639Z,10.70
2022-11-01T09:01:52.736Z,10.80
2022-11-01T09:06:56.378Z,10.90
2022-11-01T09:11:59.040Z,11.10
2022-11-01T09:17:01.752Z,11.00
2022-11-01T09:22:04.518Z,11.10
2022-11-01T09:27:10.454Z,11.20
2022-11-01T09:32:13.130Z,11.40
2022-11-01T09:37:17.145Z,11.50
2022-11-01T09:42:42.339Z,11.70
2022-11-01T09:47:49.164Z,11.70
2022-11-01T09:52:53.299Z,12.10
2022-11-01T09:58:07.138Z,12.40
2022-11-01T10:03:33.921Z,12.60
2022-11-01T10:09:11.705Z,12.50
2022-11-01T10:14:35.693Z,12.90
2022-11-01T10:19:42.031Z,12.90
2022-11-01T10:24:44.757Z,12.50
2022-11-01T10:30:00.649Z,13.30
2022-11-01T10:35:17.366Z,16.30
2022-11-01T10:40:27.577Z,15.80
2022-11-01T10:45:31.199Z,16.80
2022-11-01T10:50:34.489Z,14.90
2022-11-01T10:55:51.350Z,17.30
2022-11-01T11:00:54.362Z,19.00
2022-11-01T11:05:59.838Z,19.30
2022-11-01T11:11:12.060Z,18.90
2022-11-01T11:16:46.876Z,19.40
2022-11-01T11:21:51.897Z,20.40
2022-11-01T11:26:58.630Z,19.70
2022-11-01T11:32:03.248Z,19.10
2022-11-01T11:37:09.048Z,19.40
2022-11-01T11:42:20.997Z,19.20
2022-11-01T11:47:26.495Z,19.60
2022-11-01T11:52:39.014Z,19.90
2022-11-01T11:57:52.424Z,19.20
2022-11-01T12:02:55.495Z,19.80
2022-11-01T12:07:58.929Z,19.80
2022-11-01T12:13:33.569Z,19.60
2022-11-01T12:18:53.556Z,19.90
2022-11-01T12:24:27.497Z,18.20
2022-11-01T12:29:37.638Z,20.20
2022-11-01T12:34:42.828Z,19.60
2022-11-01T12:39:57.348Z,19.90
2022-11-01T12:45:24.548Z,19.60
2022-11-01T12:50:33.899Z,18.80
2022-11-01T12:55:42.493Z,18.80
2022-11-01T13:01:22.420Z,19.60
2022-11-01T13:06:50.147Z,18.80
2022-11-01T13:11:58.909Z,19.60
2022-11-01T13:17:28.307Z,19.40
2022-11-01T13:22:39.769Z,19.60
2022-11-01T13:27:54.808Z,19.90
2022-11-01T13:33:11.618Z,19.40
2022-11-01T13:38:43.169Z,18.80
2022-11-01T13:43:53.218Z,18.20
2022-11-01T13:49:07.019Z,17.80
2022-11-01T13:54:33.228Z,17.50
2022-11-01T13:59:45.048Z,17.00
2022-11-01T14:04:59.198Z,16.80
2022-11-01T14:10:08.900Z,16.70
2022-11-01T14:15:32.195Z,16.50
2022-11-01T14:20:49.726Z,16.30
2022-11-01T14:26:21.580Z,16.00
2022-11-01T14:31:28.139Z,15.70
2022-11-01T14:36:36.749Z,15.30
2022-11-01T14:41:41.494Z,15.20
2022-11-01T14:46:48.427Z,15.00
2022-11-01T14:52:00.447Z,14.80
2022-11-01T14:57:03.281Z,14.60
2022-11-01T15:02:08.080Z,14.40
2022-11-01T15:07:43.636Z,14.10
2022-11-01T15:12:59.110Z,14.00
2022-11-01T15:18:13.380Z,13.80
2022-11-01T15:23:30.757Z,13.60
2022-11-01T15:28:52.870Z,13.40
2022-11-01T15:33:55.589Z,13.20
2022-11-01T15:39:00.824Z,13.10
2022-11-01T15:44:06.455Z,12.90
2022-11-01T15:49:18.067Z,12.80
2022-11-01T15:54:33.396Z,12.70
2022-11-01T15:59:45.637Z,12.50
2022-11-01T16:04:48.681Z,12.50
2022-11-01T16:09:58.890Z,12.30
2022-11-01T16:15:31.750Z,12.20
2022-11-01T16:20:42.604Z,12.10
2022-11-01T16:25:45.664Z,12.00
2022-11-01T16:30:55.748Z,11.90
2022-11-01T16:36:18.171Z,11.90
2022-11-01T16:41:24.525Z,11.80
2022-11-01T16:46:30.326Z,11.60
2022-11-01T16:51:33.709Z,11.50
2022-11-01T16:56:48.229Z,11.30
2022-11-01T17:01:52.390Z,11.10
2022-11-01T17:06:58.735Z,10.90
2022-11-01T17:12:01.767Z,10.50
2022-11-01T17:17:08.833Z,10.60
2022-11-01T17:22:22.373Z,10.70
2022-11-01T17:27:25.140Z,10.70
2022-11-01T17:32:27.908Z,10.80
2022-11-01T17:37:32.574Z,10.70
2022-11-01T17:42:36.011Z,10.50
2022-11-01T17:47:38.750Z,10.30
2022-11-01T17:52:42.770Z,10.10
2022-11-01T17:57:45.769Z,10.00
2022-11-01T18:02:50.228Z,9.90
2022-11-01T18:07:53.420Z,9.70
2022-11-01T18:13:30.449Z,9.60
2022-11-01T18:18:48.270Z,9.50
2022-11-01T18:23:54.871Z,9.50
2022-11-01T18:29:16.370Z,9.50
2022-11-01T18:34:44.671Z,9.60
2022-11-01T18:40:19.611Z,9.60
2022-11-01T18:45:30.967Z,9.60
2022-11-01T18:50:38.842Z,9.70
2022-11-01T18:55:44.792Z,9.80
2022-11-01T19:01:25.876Z,9.70
2022-11-01T19:06:32.107Z,9.90
2022-11-01T19:11:35.203Z,9.60
2022-11-01T19:16:38.416Z,9.40
2022-11-01T19:21:41.485Z,9.50
2022-11-01T19:26:44.890Z,9.40
2022-11-01T19:31:58.474Z,9.40
2022-11-01T19:37:06.645Z,9.40
2022-11-01T19:42:27.081Z,9.30
2022-11-01T19:47:40.536Z,9.30
2022-11-01T19:52:47.338Z,9.60
2022-11-01T19:57:50.712Z,9.80
2022-11-01T20:02:55.541Z,9.90
2022-11-01T20:08:22.671Z,9.90
2022-11-01T20:13:25.749Z,10.00
2022-11-01T20:18:28.889Z,10.00
2022-11-01T20:23:34.220Z,10.00
2022-11-01T20:28:37.320Z,10.00
2022-11-01T20:33:40.189Z,10.00
2022-11-01T20:38:43.080Z,9.90
2022-11-01T20:43:45.811Z,9.80
2022-11-01T20:48:48.993Z,9.60
2022-11-01T20:53:52.031Z,9.60
2022-11-01T20:58:54.760Z,9.60
2022-11-01T21:03:57.905Z,9.50
2022-11-01T21:09:02.108Z,9.50
2022-11-01T21:14:13.799Z,9.40
2022-11-01T21:19:25.789Z,9.20
2022-11-01T21:24:29.731Z,9.10
2022-11-01T21:29:32.734Z,9.10
2022-11-01T21:34:35.930Z,9.00
2022-11-01T21:39:39.230Z,8.80
2022-11-01T21:44:45.759Z,8.80
2022-11-01T21:49:49.160Z,8.90
2022-11-01T21:54:52.982Z,9.00
2022-11-01T21:59:55.669Z,9.10
2022-11-01T22:04:58.364Z,9.20
2022-11-01T22:10:01.020Z,9.40
2022-11-01T22:15:03.891Z,9.70
2022-11-01T22:20:06.969Z,9.70
2022-11-01T22:25:09.890Z,9.90
2022-11-01T22:30:12.651Z,10.00
2022-11-01T22:35:15.403Z,10.10
2022-11-01T22:40:19.698Z,10.20
2022-11-01T22:45:22.671Z,10.30
2022-11-01T22:50:29.400Z,10.30
2022-11-01T22:55:32.580Z,10.40
2022-11-01T23:00:37.430Z,10.50
2022-11-01T23:05:42.255Z,10.50
2022-11-01T23:10:48.556Z,10.60
2022-11-01T23:15:51.759Z,10.60
2022-11-01T23:21:02.218Z,10.70
2022-11-01T23:26:05.281Z,10.70
2022-11-01T23:31:08.389Z,10.80
2022-11-01T23:36:33.334Z,10.90
2022-11-01T23:41:41.482Z,10.90
2022-11-01T23:46:44.432Z,10.90
2022-11-01T23:51:47.739Z,10.90
2022-11-01T23:56:50.853Z,10.90
